Time;durP1;ratioP1;P1;durP2;ratioP2;P2;SDS_P1;SDS_P2;PMS_P1;PMS_P2;Temp;Humidity;BMP_temperature;BMP_pressure;BME280_temperature;BME280_humidity;BME280_pressure;Samples;Min_cycle;Max_cycle;Signal;HPM_P1;HPM_P2
2022/07/16 00:02:38;;;;;;;3.83;1.60;;;15.90;99.90;;;;;;4937710;29;20062;-69
2022/07/16 00:05:05;;;;;;;1.38;1.27;;;15.80;99.90;;;;;;4938060;29;20048;-69
2022/07/16 00:07:30;;;;;;;6.22;1.67;;;15.80;99.90;;;;;;4938371;29;20051;-69
2022/07/16 00:09:58;;;;;;;4.18;1.85;;;15.70;99.90;;;;;;4937918;29;20055;-69
2022/07/16 00:12:25;;;;;;;1.80;1.60;;;15.70;99.90;;;;;;4937947;29;20055;-69
2022/07/16 00:14:50;;;;;;;4.28;2.20;;;15.70;99.90;;;;;;4938166;29;20122;-69
2022/07/16 00:17:16;;;;;;;2.70;1.40;;;15.70;99.90;;;;;;4938221;29;20567;-70
2022/07/16 00:19:42;;;;;;;3.03;1.63;;;15.70;99.90;;;;;;4938055;29;20058;-69
2022/07/16 00:22:08;;;;;;;3.60;2.10;;;15.80;99.90;;;;;;4937590;29;20129;-69
2022/07/16 00:24:35;;;;;;;2.40;1.63;;;15.80;99.90;;;;;;4937908;29;20079;-69
2022/07/16 00:27:01;;;;;;;4.65;2.60;;;15.90;99.90;;;;;;4937911;29;20137;-69
2022/07/16 00:29:26;;;;;;;1.42;1.33;;;15.90;99.90;;;;;;4938159;29;20127;-69
2022/07/16 00:31:54;;;;;;;3.25;1.98;;;15.90;99.90;;;;;;4937801;29;20066;-69
2022/07/16 00:34:19;;;;;;;3.35;1.90;;;16.00;99.90;;;;;;4937773;29;20098;-69
2022/07/16 00:36:45;;;;;;;3.28;1.73;;;16.00;99.90;;;;;;4937661;29;20067;-69
2022/07/16 00:39:11;;;;;;;2.60;1.60;;;16.10;99.90;;;;;;4938255;29;20465;-69
2022/07/16 00:41:39;;;;;;;2.28;1.95;;;16.10;99.90;;;;;;4937529;29;20052;-69
2022/07/16 00:44:16;;;;;;;1.83;1.67;;;16.20;99.90;;;;;;4937653;29;20048;-69
2022/07/16 00:46:44;;;;;;;1.65;1.55;;;16.20;99.90;;;;;;4937912;29;20048;-69
2022/07/16 00:49:11;;;;;;;2.00;1.80;;;16.20;99.90;;;;;;4937880;29;20178;-69
2022/07/16 00:51:49;;;;;;;5.22;1.75;;;16.30;99.90;;;;;;4937873;29;20047;-69
2022/07/16 00:54:16;;;;;;;2.92;1.95;;;16.30;99.90;;;;;;4937698;29;20138;-69
2022/07/16 00:56:42;;;;;;;2.42;1.83;;;16.30;99.90;;;;;;4937360;29;20055;-69
2022/07/16 00:59:07;;;;;;;2.67;1.85;;;16.30;99.90;;;;;;4936886;29;20047;-69
2022/07/16 01:01:33;;;;;;;3.55;1.90;;;16.30;99.90;;;;;;4937479;29;20107;-69
2022/07/16 01:04:04;;;;;;;3.78;2.35;;;16.40;99.90;;;;;;4936927;29;20354;-69
2022/07/16 01:06:31;;;;;;;4.00;2.40;;;16.40;99.90;;;;;;4937275;29;20052;-70
2022/07/16 01:08:57;;;;;;;3.38;2.78;;;16.40;99.90;;;;;;4936242;29;20575;-69
2022/07/16 01:11:22;;;;;;;3.22;2.55;;;16.40;99.90;;;;;;4936751;29;20078;-69
2022/07/16 01:13:50;;;;;;;3.55;2.65;;;16.30;99.90;;;;;;4936362;29;20091;-69
2022/07/16 01:16:16;;;;;;;2.47;2.28;;;16.20;99.90;;;;;;4936125;29;20062;-69
2022/07/16 01:18:43;;;;;;;2.65;2.20;;;16.20;99.90;;;;;;4936978;29;20059;-69
2022/07/16 01:21:09;;;;;;;3.00;2.10;;;16.10;99.90;;;;;;4936961;29;20054;-69
2022/07/16 01:23:34;;;;;;;4.72;2.53;;;16.10;99.90;;;;;;4936881;29;20051;-69
2022/07/16 01:26:01;;;;;;;2.08;1.50;;;16.00;99.90;;;;;;4936939;29;20044;-70
2022/07/16 01:28:27;;;;;;;2.33;2.13;;;16.10;99.90;;;;;;4936785;29;20051;-69
2022/07/16 01:30:53;;;;;;;3.42;1.70;;;16.00;99.90;;;;;;4936820;29;20052;-69
2022/07/16 01:33:25;;;;;;;5.15;2.67;;;16.00;99.90;;;;;;4936849;29;20409;-69
2022/07/16 01:35:56;;;;;;;4.47;2.20;;;16.00;99.90;;;;;;4936996;29;20052;-68
2022/07/16 01:38:22;;;;;;;1.42;1.27;;;16.00;99.90;;;;;;4936664;29;20083;-69
2022/07/16 01:40:48;;;;;;;3.03;1.83;;;16.00;99.90;;;;;;4936692;29;20059;-68
2022/07/16 01:43:16;;;;;;;2.05;1.45;;;16.00;99.90;;;;;;4936603;29;20050;-68
2022/07/16 01:45:41;;;;;;;1.83;1.73;;;16.00;99.90;;;;;;4936549;29;20475;-69
2022/07/16 01:48:07;;;;;;;1.85;1.58;;;15.90;99.90;;;;;;4936546;29;20139;-68
2022/07/16 01:50:33;;;;;;;1.67;1.40;;;15.90;99.90;;;;;;4936490;29;20224;-69
2022/07/16 01:52:59;;;;;;;2.17;1.95;;;15.90;99.90;;;;;;4936355;29;20083;-69
2022/07/16 01:55:25;;;;;;;4.30;1.80;;;15.90;99.90;;;;;;4936219;29;20047;-69
2022/07/16 01:57:51;;;;;;;2.90;2.38;;;16.00;99.90;;;;;;4936008;29;20079;-69
2022/07/16 02:00:16;;;;;;;2.13;1.92;;;15.90;99.90;;;;;;4937103;29;20054;-69
2022/07/16 02:02:42;;;;;;;1.92;1.70;;;16.00;99.90;;;;;;4936546;29;20043;-69
2022/07/16 02:05:08;;;;;;;2.20;2.03;;;16.00;99.90;;;;;;4936239;29;20055;-69
2022/07/16 02:07:34;;;;;;;3.90;2.30;;;16.00;99.90;;;;;;4935997;29;20043;-69
2022/07/16 02:09:59;;;;;;;2.50;1.67;;;15.90;99.90;;;;;;4934440;29;20383;-69
2022/07/16 02:12:25;;;;;;;3.20;1.70;;;15.90;99.90;;;;;;4935268;29;20102;-69
2022/07/16 02:14:51;;;;;;;2.70;1.67;;;15.90;99.90;;;;;;4935860;29;20055;-69
2022/07/16 02:17:16;;;;;;;3.30;1.63;;;15.90;99.90;;;;;;4936265;29;20046;-69
2022/07/16 02:19:42;;;;;;;6.20;1.80;;;15.80;99.90;;;;;;4936396;29;20131;-69
2022/07/16 02:22:09;;;;;;;2.22;1.70;;;15.80;99.90;;;;;;4936016;29;20463;-69
2022/07/16 02:24:35;;;;;;;4.15;1.80;;;15.80;99.90;;;;;;4936060;29;20083;-69
2022/07/16 02:27:01;;;;;;;2.47;1.48;;;15.80;99.90;;;;;;4935993;29;20056;-69
2022/07/16 02:29:26;;;;;;;2.08;1.77;;;15.70;99.90;;;;;;4936219;29;20051;-69
2022/07/16 02:31:52;;;;;;;3.90;1.60;;;15.70;99.90;;;;;;4935778;29;20461;-69
2022/07/16 02:34:18;;;;;;;2.17;1.88;;;15.60;99.90;;;;;;4935693;29;20058;-69
2022/07/16 02:36:43;;;;;;;2.00;1.67;;;15.60;99.90;;;;;;4935396;29;20475;-69
2022/07/16 02:39:09;;;;;;;4.00;2.30;;;15.60;99.90;;;;;;4935702;29;20111;-69
2022/07/16 02:41:35;;;;;;;1.70;1.45;;;15.50;99.90;;;;;;4935650;29;20086;-69
2022/07/16 02:44:00;;;;;;;2.30;1.48;;;15.40;99.90;;;;;;4935418;29;20047;-69
2022/07/16 02:46:26;;;;;;;3.63;1.60;;;15.40;99.90;;;;;;4935392;29;20050;-69
2022/07/16 02:48:52;;;;;;;2.00;1.25;;;15.40;99.90;;;;;;4935417;29;20127;-69
2022/07/16 02:51:17;;;;;;;4.20;1.58;;;15.40;99.90;;;;;;4935237;29;20062;-68
2022/07/16 02:53:43;;;;;;;5.75;2.03;;;15.40;99.90;;;;;;4935332;29;20048;-69
2022/07/16 02:56:09;;;;;;;3.22;1.35;;;15.40;99.90;;;;;;4935808;29;20044;-69
2022/07/16 02:58:34;;;;;;;4.32;1.40;;;15.40;99.90;;;;;;4935379;29;20089;-68
2022/07/16 03:01:00;;;;;;;3.40;1.50;;;15.30;99.90;;;;;;4935371;29;20052;-69
2022/07/16 03:03:26;;;;;;;2.38;1.60;;;15.30;99.90;;;;;;4935467;29;20457;-68
2022/07/16 03:05:52;;;;;;;3.22;1.42;;;15.30;99.90;;;;;;4935343;29;20150;-69
2022/07/16 03:08:18;;;;;;;3.72;1.30;;;15.20;99.90;;;;;;4935015;29;20525;-69
2022/07/16 03:10:44;;;;;;;1.98;1.50;;;15.20;99.90;;;;;;4935295;29;20123;-69
2022/07/16 03:13:09;;;;;;;8.05;2.05;;;15.20;99.90;;;;;;4935395;29;20063;-69
2022/07/16 03:15:35;;;;;;;4.88;1.65;;;15.20;99.90;;;;;;4935303;29;20460;-69
2022/07/16 03:18:01;;;;;;;4.78;1.58;;;15.10;99.90;;;;;;4934343;29;20141;-69
2022/07/16 03:20:27;;;;;;;1.88;1.67;;;15.10;99.90;;;;;;4935266;29;20445;-69
2022/07/16 03:22:52;;;;;;;3.13;1.38;;;15.00;99.90;;;;;;4935069;29;20441;-69
2022/07/16 03:25:18;;;;;;;4.35;1.45;;;15.00;99.90;;;;;;4934866;29;20437;-69
2022/07/16 03:27:44;;;;;;;2.17;1.60;;;14.90;99.90;;;;;;4935208;29;20055;-69
2022/07/16 03:30:10;;;;;;;1.65;1.38;;;14.90;99.90;;;;;;4934962;29;20051;-69
2022/07/16 03:32:36;;;;;;;2.92;1.42;;;14.90;99.90;;;;;;4934838;29;20048;-69
2022/07/16 03:35:08;;;;;;;1.73;1.10;;;14.90;99.90;;;;;;4934952;29;20054;-69
2022/07/16 03:38:57;;;;;;;1.90;1.48;;;14.80;99.90;;;;;;4934073;29;20060;-69
2022/07/16 03:40:20;;;;;;;2.22;2.03;;;14.80;99.90;;;;;;4933924;29;20063;-68
2022/07/16 03:42:46;;;;;;;3.20;1.80;;;14.80;99.90;;;;;;4934737;29;20135;-69
2022/07/16 03:45:12;;;;;;;2.78;1.83;;;14.70;99.90;;;;;;4934805;29;20048;-69
2022/07/16 03:47:37;;;;;;;3.47;1.55;;;14.70;99.90;;;;;;4934761;29;20087;-69
2022/07/16 03:50:03;;;;;;;2.95;1.98;;;14.70;99.90;;;;;;4934699;29;20110;-69
2022/07/16 03:52:29;;;;;;;4.70;1.63;;;14.60;99.90;;;;;;4934799;29;20055;-69
2022/07/16 03:54:55;;;;;;;4.88;1.70;;;14.60;99.90;;;;;;4934763;29;20051;-69
2022/07/16 03:57:20;;;;;;;3.13;1.50;;;14.60;99.90;;;;;;4934708;29;20123;-69
2022/07/16 03:59:46;;;;;;;3.17;1.10;;;14.60;99.90;;;;;;4934479;29;20079;-69
2022/07/16 04:02:12;;;;;;;2.33;2.08;;;14.50;99.90;;;;;;4934858;29;20040;-69
2022/07/16 04:04:38;;;;;;;1.80;1.70;;;14.50;99.90;;;;;;4934701;29;20106;-69
2022/07/16 04:07:03;;;;;;;2.65;1.70;;;14.50;99.90;;;;;;4934618;29;20074;-69
2022/07/16 04:09:29;;;;;;;1.85;1.58;;;14.50;99.90;;;;;;4934841;29;20051;-68
2022/07/16 04:11:55;;;;;;;3.33;1.80;;;14.60;99.90;;;;;;4934569;29;20451;-69
2022/07/16 04:14:21;;;;;;;3.38;1.83;;;14.60;99.90;;;;;;4934525;29;20052;-69
2022/07/16 04:16:47;;;;;;;2.88;2.10;;;14.60;99.90;;;;;;4934791;29;20069;-69
2022/07/16 04:19:13;;;;;;;3.08;2.22;;;14.60;99.90;;;;;;4934912;29;20069;-68
2022/07/16 04:21:38;;;;;;;3.35;1.70;;;14.60;99.90;;;;;;4934819;29;20048;-68
2022/07/16 04:24:04;;;;;;;2.30;2.10;;;14.60;99.90;;;;;;4934294;29;20073;-69
2022/07/16 04:26:30;;;;;;;6.28;2.05;;;14.60;99.90;;;;;;4933513;29;20059;-69
2022/07/16 04:28:56;;;;;;;3.90;2.00;;;14.60;99.90;;;;;;4933850;29;20051;-69
2022/07/16 04:31:23;;;;;;;2.38;1.70;;;14.60;99.90;;;;;;4934321;29;20107;-69
2022/07/16 04:33:49;;;;;;;5.10;1.83;;;14.60;99.90;;;;;;4936672;29;20054;-68
2022/07/16 04:36:14;;;;;;;2.63;1.70;;;14.60;99.90;;;;;;4937916;29;20051;-69
2022/07/16 04:38:40;;;;;;;5.38;1.65;;;14.60;99.90;;;;;;4937381;29;20119;-68
2022/07/16 04:41:06;;;;;;;3.00;1.35;;;14.70;99.90;;;;;;4952491;29;20063;-69
2022/07/16 04:43:31;;;;;;;4.18;2.00;;;14.70;99.90;;;;;;4937644;29;20050;-68
2022/07/16 04:45:57;;;;;;;4.13;1.42;;;14.70;99.90;;;;;;4937539;29;20399;-69
2022/07/16 04:48:23;;;;;;;4.10;1.63;;;14.70;99.90;;;;;;4937935;29;20064;-69
2022/07/16 04:50:48;;;;;;;3.90;2.10;;;14.70;99.90;;;;;;4937483;29;20092;-69
2022/07/16 04:53:14;;;;;;;4.43;1.90;;;14.70;99.90;;;;;;4937372;29;20057;-68
2022/07/16 04:55:40;;;;;;;2.78;1.90;;;14.70;99.90;;;;;;4937648;29;20047;-68
2022/07/16 04:58:09;;;;;;;3.28;1.38;;;14.80;99.90;;;;;;4937644;29;20051;-68
2022/07/16 05:00:35;;;;;;;2.90;1.67;;;14.90;99.90;;;;;;4936354;29;20473;-68
2022/07/16 05:03:01;;;;;;;2.22;1.67;;;15.00;99.90;;;;;;4937188;29;20036;-68
2022/07/16 05:05:34;;;;;;;6.75;1.95;;;15.10;99.90;;;;;;4937624;29;20047;-68
2022/07/16 05:08:01;;;;;;;3.53;1.80;;;15.20;99.90;;;;;;4937399;29;20048;-68
2022/07/16 05:10:28;;;;;;;2.58;1.70;;;15.30;99.90;;;;;;4936964;29;20075;-73
2022/07/16 05:12:55;;;;;;;3.60;1.67;;;15.50;99.90;;;;;;4937505;29;20083;-74
2022/07/16 05:15:21;;;;;;;5.28;2.05;;;15.60;99.90;;;;;;4936979;29;20518;-70
2022/07/16 05:17:47;;;;;;;4.20;1.50;;;15.70;99.90;;;;;;4936707;29;20090;-72
2022/07/16 05:20:13;;;;;;;3.50;1.52;;;15.70;99.90;;;;;;4935954;29;20063;-71
2022/07/16 05:22:39;;;;;;;4.65;1.63;;;15.70;99.90;;;;;;4936805;29;20475;-72
2022/07/16 05:25:06;;;;;;;3.20;1.80;;;15.60;99.90;;;;;;4936709;29;20078;-70
2022/07/16 05:27:32;;;;;;;4.97;2.00;;;15.60;99.90;;;;;;4936568;29;20115;-72
2022/07/16 05:29:58;;;;;;;3.58;1.60;;;15.50;99.90;;;;;;4936894;29;20484;-72
2022/07/16 05:32:24;;;;;;;3.08;2.05;;;15.50;99.90;;;;;;4936296;29;20123;-72
2022/07/16 05:34:50;;;;;;;4.20;1.80;;;15.60;99.90;;;;;;4919544;29;20091;-71
2022/07/16 05:37:15;;;;;;;3.38;1.60;;;15.60;99.90;;;;;;4936272;29;20043;-72
2022/07/16 05:39:41;;;;;;;3.33;2.25;;;15.60;99.90;;;;;;4936220;29;20059;-72
2022/07/16 05:42:07;;;;;;;2.40;1.80;;;15.70;99.90;;;;;;4936603;29;20130;-72
2022/07/16 05:44:32;;;;;;;2.92;1.52;;;15.70;99.90;;;;;;4936278;29;20047;-72
2022/07/16 05:46:58;;;;;;;1.58;1.45;;;15.90;99.90;;;;;;4935814;29;20048;-72
2022/07/16 05:49:24;;;;;;;1.95;1.35;;;15.90;99.90;;;;;;4936589;29;20056;-72
2022/07/16 05:51:50;;;;;;;5.07;1.90;;;16.00;99.90;;;;;;4936062;29;20043;-71
2022/07/16 05:54:15;;;;;;;2.90;1.98;;;16.00;99.90;;;;;;4936161;29;20054;-72
2022/07/16 05:56:41;;;;;;;6.40;1.75;;;16.00;99.90;;;;;;4936056;29;20063;-72
2022/07/16 05:59:07;;;;;;;2.35;1.20;;;16.00;99.90;;;;;;4936016;29;20050;-72
2022/07/16 06:01:33;;;;;;;2.55;1.52;;;16.10;99.90;;;;;;4936116;29;20179;-73
2022/07/16 06:03:59;;;;;;;4.00;1.25;;;16.10;99.90;;;;;;4936038;29;20466;-71
2022/07/16 06:06:24;;;;;;;2.45;1.55;;;16.20;99.90;;;;;;4935963;29;20059;-72
2022/07/16 06:08:50;;;;;;;3.50;1.40;;;16.20;99.90;;;;;;4935660;29;20058;-71
2022/07/16 06:11:16;;;;;;;2.03;1.00;;;16.20;99.90;;;;;;4936525;29;20039;-73
2022/07/16 06:13:42;;;;;;;4.68;1.30;;;16.30;99.90;;;;;;4935739;29;20048;-73
2022/07/16 06:16:08;;;;;;;8.90;1.80;;;16.30;99.90;;;;;;4935720;29;20530;-71
2022/07/16 06:18:34;;;;;;;2.97;1.10;;;16.20;99.90;;;;;;4935634;29;20131;-72
2022/07/16 06:21:00;;;;;;;1.75;1.20;;;16.10;99.90;;;;;;4935284;29;20075;-71
2022/07/16 06:23:26;;;;;;;5.43;1.35;;;16.00;99.90;;;;;;4935293;29;20043;-71
2022/07/16 06:25:51;;;;;;;4.60;1.67;;;16.10;99.90;;;;;;4935631;29;20147;-73
2022/07/16 06:28:17;;;;;;;6.22;1.48;;;16.20;99.90;;;;;;4935766;29;20051;-73
2022/07/16 06:30:43;;;;;;;2.60;1.05;;;16.40;99.90;;;;;;4935452;29;20164;-72
2022/07/16 06:33:09;;;;;;;3.72;1.50;;;16.90;99.90;;;;;;4935732;29;20046;-72
2022/07/16 06:35:35;;;;;;;3.97;1.33;;;17.80;99.90;;;;;;4935704;29;20052;-71
2022/07/16 06:38:03;;;;;;;4.60;1.13;;;18.90;99.90;;;;;;4935064;29;20055;-74
2022/07/16 06:40:29;;;;;;;2.28;1.02;;;19.80;97.90;;;;;;4935416;29;20130;-71
2022/07/16 06:42:54;;;;;;;2.28;1.23;;;20.30;99.90;;;;;;4935058;29;20115;-72
2022/07/16 06:45:20;;;;;;;21.23;1.63;;;20.70;99.90;;;;;;4935256;29;20047;-70
2022/07/16 06:47:46;;;;;;;3.17;1.25;;;21.10;98.90;;;;;;4935544;29;20043;-71
2022/07/16 06:50:11;;;;;;;3.33;1.25;;;20.90;94.30;;;;;;4935209;29;20487;-72
2022/07/16 06:52:38;;;;;;;4.10;1.25;;;21.00;96.70;;;;;;4935043;29;20047;-73
2022/07/16 06:55:04;;;;;;;5.15;1.30;;;21.00;92.70;;;;;;4934022;29;20060;-71
2022/07/16 06:57:30;;;;;;;3.67;1.75;;;20.80;92.90;;;;;;4935287;29;20058;-72
2022/07/16 06:59:55;;;;;;;1.80;1.08;;;21.40;93.70;;;;;;4935285;29;20353;-71
2022/07/16 07:02:21;;;;;;;2.58;1.10;;;21.50;93.80;;;;;;4934936;29;20058;-73
2022/07/16 07:04:47;;;;;;;3.22;1.15;;;21.40;93.80;;;;;;4935090;29;20146;-73
2022/07/16 07:07:13;;;;;;;5.63;1.35;;;21.30;92.10;;;;;;4934521;29;20127;-71
2022/07/16 07:09:38;;;;;;;3.88;0.90;;;22.20;93.40;;;;;;4934643;29;20090;-74
2022/07/16 07:12:05;;;;;;;3.17;1.20;;;22.60;91.50;;;;;;4917958;29;20051;-73
2022/07/16 07:14:30;;;;;;;3.17;1.05;;;22.00;91.60;;;;;;4934754;29;20044;-72
2022/07/16 07:16:56;;;;;;;2.42;1.10;;;20.70;87.00;;;;;;4933349;29;20107;-74
2022/07/16 07:19:22;;;;;;;2.05;1.52;;;19.80;90.40;;;;;;4934706;29;20093;-71
2022/07/16 07:21:47;;;;;;;1.20;0.93;;;19.00;93.10;;;;;;4934504;29;20118;-72
2022/07/16 07:24:13;;;;;;;3.42;1.58;;;18.50;92.40;;;;;;4934260;29;20055;-72
2022/07/16 07:26:38;;;;;;;3.63;1.40;;;18.40;93.20;;;;;;4934795;29;20130;-73
2022/07/16 07:29:05;;;;;;;3.17;0.98;;;18.00;93.20;;;;;;4934580;29;20059;-73
2022/07/16 07:31:32;;;;;;;3.70;1.02;;;17.80;94.10;;;;;;4934579;29;20079;-71
2022/07/16 07:33:57;;;;;;;1.55;1.10;;;17.50;93.80;;;;;;4934587;29;20048;-73
2022/07/16 07:36:23;;;;;;;3.08;1.65;;;17.30;94.30;;;;;;4934633;29;20059;-71
2022/07/16 07:38:49;;;;;;;2.67;0.70;;;17.30;94.40;;;;;;4934576;29;20099;-73
2022/07/16 07:41:15;;;;;;;2.65;0.80;;;18.10;94.70;;;;;;4934461;29;20052;-74
2022/07/16 07:43:41;;;;;;;3.53;1.13;;;19.40;92.90;;;;;;4934746;29;20044;-72
2022/07/16 07:46:06;;;;;;;3.10;1.05;;;20.40;87.60;;;;;;4934241;29;20127;-73
2022/07/16 07:48:32;;;;;;;1.95;0.98;;;20.80;86.20;;;;;;4934648;29;20058;-72
2022/07/16 07:50:58;;;;;;;2.35;0.90;;;20.80;85.30;;;;;;4934163;29;20052;-71
2022/07/16 07:53:24;;;;;;;1.95;1.00;;;21.20;88.10;;;;;;4934454;29;20059;-74
2022/07/16 07:55:50;;;;;;;1.25;0.73;;;21.40;85.10;;;;;;4934285;29;20127;-73
2022/07/16 07:58:16;;;;;;;3.10;0.77;;;21.50;84.00;;;;;;4934580;29;20098;-72
2022/07/16 08:00:42;;;;;;;1.58;0.60;;;21.40;81.90;;;;;;4934377;29;20051;-73
2022/07/16 08:03:08;;;;;;;2.17;1.05;;;21.80;85.40;;;;;;4934413;29;20048;-72
2022/07/16 08:05:35;;;;;;;6.90;0.90;;;21.60;85.60;;;;;;4934364;29;20479;-74
2022/07/16 08:08:00;;;;;;;1.05;0.60;;;20.90;85.30;;;;;;4935690;29;20056;-72
2022/07/16 08:10:26;;;;;;;2.60;0.90;;;20.30;85.20;;;;;;4937981;29;20058;-71
2022/07/16 08:12:52;;;;;;;3.20;1.00;;;19.60;85.30;;;;;;4937823;29;20087;-73
2022/07/16 08:15:18;;;;;;;1.95;0.90;;;19.80;87.10;;;;;;4937848;29;20103;-73
2022/07/16 08:17:44;;;;;;;2.85;0.85;;;21.00;86.30;;;;;;4936833;29;20055;-70
2022/07/16 08:20:10;;;;;;;2.25;1.02;;;21.30;82.80;;;;;;4937529;29;20062;-71
2022/07/16 08:22:36;;;;;;;2.92;1.10;;;20.90;83.50;;;;;;4936516;29;20046;-71
2022/07/16 08:27:47;;;;;;;2.08;1.00;;;20.50;85.40;;;;;;4937569;29;20059;-74
2022/07/16 08:30:13;;;;;;;5.13;1.20;;;20.30;87.50;;;;;;4937643;29;20055;-71
2022/07/16 08:32:38;;;;;;;2.25;1.00;;;20.10;87.40;;;;;;4937621;29;20127;-71
2022/07/16 08:35:04;;;;;;;4.38;1.17;;;19.90;88.00;;;;;;4937979;29;20454;-73
2022/07/16 08:37:35;;;;;;;1.42;0.70;;;19.80;88.70;;;;;;4937157;29;20192;-73
2022/07/16 08:40:05;;;;;;;3.58;1.10;;;20.00;89.70;;;;;;4937639;29;20047;-71
2022/07/16 08:42:33;;;;;;;3.42;1.92;;;20.40;89.00;;;;;;4937181;29;20050;-70
2022/07/16 08:45:00;;;;;;;1.48;1.10;;;20.80;88.60;;;;;;4937280;29;20098;-72
2022/07/16 08:47:27;;;;;;;3.55;1.13;;;20.60;88.80;;;;;;4936942;29;20440;-73
2022/07/16 08:49:54;;;;;;;5.35;1.10;;;20.60;88.70;;;;;;4937077;29;20079;-73
2022/07/16 08:52:23;;;;;;;2.80;1.67;;;20.50;88.50;;;;;;4937166;29;20052;-73
2022/07/16 08:54:49;;;;;;;4.90;1.70;;;20.30;89.80;;;;;;4937034;29;20047;-72
2022/07/16 08:57:16;;;;;;;2.78;1.00;;;20.30;89.90;;;;;;4937067;29;20059;-70
2022/07/16 08:59:42;;;;;;;2.65;1.30;;;20.30;89.40;;;;;;4937103;29;20048;-72
2022/07/16 09:02:14;;;;;;;5.90;1.20;;;20.10;90.00;;;;;;4936910;29;20039;-72
2022/07/16 09:04:42;;;;;;;2.17;0.90;;;19.60;90.30;;;;;;4937381;29;20087;-73
2022/07/16 09:07:15;;;;;;;3.10;1.20;;;19.40;90.80;;;;;;4936654;29;20568;-73
2022/07/16 09:09:41;;;;;;;5.10;2.00;;;19.30;91.40;;;;;;4936841;29;20050;-73
2022/07/16 09:12:07;;;;;;;2.67;1.10;;;19.00;91.70;;;;;;4936972;29;20052;-71
2022/07/16 09:14:33;;;;;;;4.45;1.95;;;19.00;91.90;;;;;;4936003;29;20504;-69
2022/07/16 09:17:00;;;;;;;1.73;1.02;;;18.70;91.40;;;;;;4936463;29;20123;-70
2022/07/16 09:19:28;;;;;;;4.80;1.45;;;18.60;91.50;;;;;;4936231;29;20354;-71
2022/07/16 09:22:07;;;;;;;1.38;0.85;;;18.60;91.30;;;;;;4935475;29;20058;-71
2022/07/16 09:24:52;;;;;;;2.72;1.40;;;18.80;90.60;;;;;;4936986;29;20047;-71
2022/07/16 09:27:27;;;;;;;2.05;1.10;;;19.70;89.90;;;;;;4936925;29;20499;-71
2022/07/16 09:29:58;;;;;;;2.42;1.10;;;20.60;88.30;;;;;;4936760;29;20048;-71
2022/07/16 09:32:39;;;;;;;2.30;1.00;;;21.10;88.20;;;;;;4936359;29;20522;-71
2022/07/16 09:35:14;;;;;;;1.40;1.20;;;21.50;83.80;;;;;;4936543;29;20091;-70
2022/07/16 09:37:48;;;;;;;2.25;0.90;;;22.00;85.90;;;;;;4936790;29;20051;-70
2022/07/16 09:40:27;;;;;;;3.95;1.52;;;22.40;82.90;;;;;;4936339;29;20051;-71
2022/07/16 09:42:53;;;;;;;4.90;1.17;;;22.10;85.70;;;;;;4936513;29;20048;-71
2022/07/16 09:45:22;;;;;;;3.80;1.27;;;21.30;83.50;;;;;;4936493;29;20106;-71
2022/07/16 09:47:48;;;;;;;1.67;1.20;;;21.30;80.90;;;;;;4936537;29;20055;-70
2022/07/16 09:50:14;;;;;;;3.10;1.23;;;21.00;83.30;;;;;;4936496;29;20047;-71
2022/07/16 09:52:40;;;;;;;2.47;1.08;;;21.20;82.80;;;;;;4936309;29;20484;-69
2022/07/16 09:55:06;;;;;;;1.55;1.05;;;21.80;83.90;;;;;;4936167;29;20051;-70
2022/07/16 09:57:32;;;;;;;2.65;1.10;;;21.90;81.20;;;;;;4936642;29;20137;-70
2022/07/16 09:59:59;;;;;;;2.95;1.60;;;21.60;82.80;;;;;;4936220;29;20471;-71
2022/07/16 10:02:26;;;;;;;4.07;1.30;;;21.30;82.70;;;;;;4935196;29;20519;-68
2022/07/16 10:04:52;;;;;;;3.30;1.20;;;20.70;84.30;;;;;;4934869;29;20039;-66
2022/07/16 10:07:18;;;;;;;4.78;1.20;;;20.70;84.80;;;;;;4935503;29;20131;-66
2022/07/16 10:09:44;;;;;;;3.92;1.50;;;20.70;82.60;;;;;;4935862;29;20055;-66
2022/07/16 10:12:15;;;;;;;2.72;0.85;;;20.70;83.80;;;;;;4935318;29;20119;-68
2022/07/16 10:14:53;;;;;;;6.57;1.02;;;21.20;83.50;;;;;;4935413;29;20035;-68
2022/07/16 10:17:22;;;;;;;3.55;0.90;;;21.90;80.60;;;;;;4935151;29;20407;-68
2022/07/16 10:20:06;;;;;;;2.33;0.90;;;22.80;82.10;;;;;;4934757;29;20044;-68
2022/07/16 10:22:37;;;;;;;3.10;1.00;;;23.00;77.30;;;;;;4935478;29;20070;-70
2022/07/16 10:25:11;;;;;;;6.57;2.53;;;22.50;78.30;;;;;;4935367;29;20496;-76
2022/07/16 10:27:37;;;;;;;1.23;0.73;;;22.50;75.80;;;;;;4935417;29;20047;-69
2022/07/16 10:30:13;;;;;;;2.72;0.77;;;23.10;78.30;;;;;;4934505;29;20059;-70
2022/07/16 10:33:00;;;;;;;4.38;1.08;;;22.90;76.60;;;;;;4935334;29;20377;-69
2022/07/16 10:35:38;;;;;;;2.00;1.00;;;22.10;75.70;;;;;;4935087;29;20043;-70
2022/07/16 10:38:05;;;;;;;0.82;0.75;;;22.00;77.70;;;;;;4934884;29;20055;-69
2022/07/16 10:40:31;;;;;;;2.92;0.82;;;22.20;78.60;;;;;;4935153;29;20090;-69
2022/07/16 10:43:15;;;;;;;2.25;1.60;;;21.70;76.50;;;;;;4935050;29;20134;-69
2022/07/16 10:46:00;;;;;;;1.42;0.93;;;21.20;77.70;;;;;;4935219;29;20052;-69
2022/07/16 10:48:28;;;;;;;2.78;1.48;;;20.90;77.90;;;;;;4934926;29;20106;-69
2022/07/16 10:51:18;;;;;;;3.90;1.08;;;21.00;78.80;;;;;;4934800;29;20044;-69
2022/07/16 10:54:02;;;;;;;1.35;1.15;;;21.50;78.20;;;;;;4935189;29;20043;-69
2022/07/16 10:56:48;;;;;;;1.90;0.70;;;21.90;78.90;;;;;;4934824;29;20047;-69
2022/07/16 10:59:17;;;;;;;2.60;0.90;;;22.50;77.10;;;;;;4934946;29;20059;-69
2022/07/16 11:01:45;;;;;;;6.95;1.42;;;22.20;79.20;;;;;;4934798;29;20060;-69
2022/07/16 11:04:13;;;;;;;3.80;1.20;;;21.90;81.00;;;;;;4934877;29;20035;-69
2022/07/16 11:06:40;;;;;;;5.38;1.50;;;22.10;80.20;;;;;;4934535;29;20054;-71
2022/07/16 11:09:09;;;;;;;1.30;0.85;;;22.10;80.40;;;;;;4934803;29;20047;-69
2022/07/16 11:11:38;;;;;;;1.90;0.95;;;21.80;78.80;;;;;;4933577;29;20047;-71
2022/07/16 11:14:05;;;;;;;2.25;1.00;;;21.70;79.20;;;;;;4934144;29;20487;-69
2022/07/16 11:16:31;;;;;;;1.75;0.77;;;21.80;78.50;;;;;;4934362;29;20502;-70
2022/07/16 11:19:01;;;;;;;2.38;1.02;;;21.50;77.00;;;;;;4932873;29;20103;-70
2022/07/16 11:21:27;;;;;;;2.80;1.00;;;21.80;77.80;;;;;;4934034;29;20055;-70
2022/07/16 11:23:56;;;;;;;1.63;1.00;;;21.20;76.80;;;;;;4934219;29;20082;-70
2022/07/16 11:26:23;;;;;;;6.35;1.23;;;21.30;78.60;;;;;;4934391;29;20044;-71
2022/07/16 11:29:03;;;;;;;2.35;1.20;;;21.10;78.10;;;;;;4934293;29;20050;-70
2022/07/16 11:31:34;;;;;;;3.50;1.10;;;21.50;79.10;;;;;;4934320;29;20083;-73
2022/07/16 11:34:08;;;;;;;2.30;1.20;;;22.00;78.70;;;;;;4934498;29;20047;-73
2022/07/16 11:36:43;;;;;;;1.67;1.08;;;21.70;78.10;;;;;;4934546;29;20051;-73
2022/07/16 11:39:11;;;;;;;3.45;1.15;;;20.90;78.40;;;;;;4934665;29;20139;-74
2022/07/16 11:41:41;;;;;;;3.72;1.63;;;20.80;79.50;;;;;;4935636;29;20131;-74
2022/07/16 11:44:17;;;;;;;2.45;1.10;;;20.60;80.70;;;;;;4938639;29;20094;-73
2022/07/16 11:47:00;;;;;;;8.15;1.77;;;20.80;81.30;;;;;;4937237;29;20044;-74
2022/07/16 11:49:32;;;;;;;;;;;20.80;83.00;;;;;;4938767;29;20122;-74
2022/07/16 11:52:04;;;;;;;2.90;1.10;;;20.50;81.80;;;;;;4938154;29;19952;-74
2022/07/16 11:54:34;;;;;;;3.92;1.48;;;20.70;81.50;;;;;;4938245;29;20058;-75
2022/07/16 11:57:00;;;;;;;3.75;1.23;;;21.10;81.50;;;;;;4938302;29;20048;-74
2022/07/16 11:59:28;;;;;;;3.67;1.42;;;21.30;80.80;;;;;;4938276;29;20043;-75
2022/07/16 12:02:06;;;;;;;6.03;1.77;;;21.30;81.00;;;;;;4938051;29;20059;-74
2022/07/16 12:04:40;;;;;;;1.75;1.15;;;21.00;81.50;;;;;;4938234;29;20504;-74
2022/07/16 12:07:11;;;;;;;3.67;1.05;;;21.40;81.00;;;;;;4936732;29;20055;-76
2022/07/16 12:09:39;;;;;;;6.45;1.85;;;21.60;79.10;;;;;;4937847;29;20131;-75
2022/07/16 12:12:28;;;;;;;3.42;1.02;;;21.90;78.90;;;;;;4937717;29;20052;-75
2022/07/16 12:14:55;;;;;;;3.40;1.20;;;22.10;77.90;;;;;;4937891;29;20114;-75
2022/07/16 12:17:22;;;;;;;3.45;0.98;;;21.80;79.60;;;;;;4937412;29;20047;-75
2022/07/16 12:20:03;;;;;;;3.28;1.30;;;21.70;78.60;;;;;;4937583;29;20079;-75
2022/07/16 12:22:52;;;;;;;3.92;1.33;;;21.50;78.20;;;;;;4937771;29;20086;-74
2022/07/16 12:25:19;;;;;;;3.70;1.27;;;21.50;78.20;;;;;;4937558;29;20043;-70
2022/07/16 12:27:47;;;;;;;1.10;0.98;;;21.60;79.80;;;;;;4937491;29;20055;-73
2022/07/16 12:30:13;;;;;;;4.03;1.40;;;21.80;80.40;;;;;;4937687;29;20051;-73
2022/07/16 12:32:52;;;;;;;2.53;0.90;;;21.80;78.40;;;;;;4937722;29;20046;-73
2022/07/16 12:35:43;;;;;;;2.80;1.17;;;22.00;79.30;;;;;;4937452;29;20059;-72
2022/07/16 12:38:49;;;;;;;2.75;1.20;;;22.00;78.50;;;;;;4937685;29;20062;-73
2022/07/16 12:41:26;;;;;;;3.45;1.35;;;21.60;77.80;;;;;;4937406;29;20051;-74
2022/07/16 12:44:00;;;;;;;4.78;1.85;;;21.30;79.90;;;;;;4936389;29;20074;-74
2022/07/16 12:46:37;;;;;;;3.00;1.20;;;21.00;79.80;;;;;;4937414;29;20063;-73
2022/07/16 12:49:13;;;;;;;2.00;1.33;;;20.70;78.80;;;;;;4937924;29;20054;-74
2022/07/16 12:52:01;;;;;;;2.13;1.10;;;20.70;80.60;;;;;;4937715;29;20073;-74
2022/07/16 12:58:47;;;;;;;5.22;1.17;;;21.20;80.70;;;;;;4936721;29;20039;-74
2022/07/16 13:00:11;;;;;;;4.60;1.30;;;21.90;79.50;;;;;;4946258;29;20134;-75